Proctor, Ohio
Current Conditions -  °F | °C
As of 4:00 AM on Wednesday 26 Nov 2014 (Local Time) from KPOV Reporting Station
Clear Clear  
Wind Chill: 23°   Ceiling: Unl
Heat Index: 29°   Visibility: 10mi
Dew Point: 23°   Wind: 6mph
Humidity: 77%   Direction: 60°ENE
Pressure: 30.14"   Gusts: NA
Location:  41.1736°N, 81.1686°W
Report Text: KPOV 260900Z AUTO 06005KT 10SM CLR M01/M05 A3014 RMK AO2 T10151050
Loading
Personal Weather Stations






























Interactive Weather Map New forecast layout! Learn more

10-Day Weather Forecast

Advertisements
Track Severe Weather on mobile